Time;durP1;ratioP1;P1;durP2;ratioP2;P2;SDS_P1;SDS_P2;PMS_P1;PMS_P2;Temp;Humidity;BMP_temperature;BMP_pressure;BME280_temperature;BME280_humidity;BME280_pressure;Samples;Min_cycle;Max_cycle;Signal;HPM_P1;HPM_P2
2023/09/30 00:02:49;;;;;;;13.30;8.48;;;;;;;;;;6257927;28;20319;-72
2023/09/30 00:05:53;;;;;;;19.52;8.50;;;;;;;;;;6258462;28;20454;-70
2023/09/30 00:08:57;;;;;;;12.30;7.78;;;;;;;;;;6257907;28;20295;-70
2023/09/30 00:12:01;;;;;;;11.73;8.50;;;;;;;;;;6258118;28;20287;-71
2023/09/30 00:15:05;;;;;;;11.18;8.13;;;;;;;;;;6257784;28;20472;-71
2023/09/30 00:18:10;;;;;;;12.35;7.50;;;;;;;;;;6257758;28;20295;-70
2023/09/30 00:21:15;;;;;;;10.38;7.20;;;;;;;;;;6257888;28;20295;-71
2023/09/30 00:24:19;;;;;;;8.55;7.45;;;;;;;;;;6257726;28;20296;-70
2023/09/30 00:27:23;;;;;;;12.48;7.65;;;;;;;;;;6257930;28;20596;-70
2023/09/30 00:30:27;;;;;;;10.73;7.47;;;;;;;;;;6256498;28;20315;-71
2023/09/30 00:33:32;;;;;;;11.07;6.95;;;;;;;;;;6257136;28;20315;-71
2023/09/30 00:36:37;;;;;;;14.23;7.13;;;;;;;;;;6232831;28;20458;-71
2023/09/30 00:39:40;;;;;;;10.95;7.47;;;;;;;;;;6273822;28;20296;-72
2023/09/30 00:42:44;;;;;;;8.63;7.05;;;;;;;;;;6257191;28;20264;-70
2023/09/30 00:45:49;;;;;;;11.82;6.93;;;;;;;;;;6272465;28;20260;-70
2023/09/30 00:48:56;;;;;;;10.00;6.82;;;;;;;;;;6255297;28;20299;-71
2023/09/30 00:52:01;;;;;;;10.07;6.40;;;;;;;;;;6257482;28;20299;-70
2023/09/30 00:55:06;;;;;;;10.32;6.55;;;;;;;;;;6257142;28;20300;-71
2023/09/30 00:58:11;;;;;;;8.02;6.22;;;;;;;;;;6256961;28;20280;-71
2023/09/30 01:01:15;;;;;;;8.40;5.70;;;;;;;;;;6256213;28;20311;-70
2023/09/30 01:04:21;;;;;;;7.38;6.00;;;;;;;;;;6256958;28;20727;-70
2023/09/30 01:07:25;;;;;;;7.20;5.70;;;;;;;;;;6272631;28;20544;-71
2023/09/30 01:10:29;;;;;;;8.30;5.85;;;;;;;;;;6256850;28;20572;-70
2023/09/30 01:13:34;;;;;;;6.00;5.40;;;;;;;;;;6272152;28;20712;-72
2023/09/30 01:16:38;;;;;;;5.32;4.95;;;;;;;;;;6255498;28;20320;-70
2023/09/30 01:19:43;;;;;;;5.25;4.65;;;;;;;;;;6256672;28;20296;-72
2023/09/30 01:22:48;;;;;;;5.40;4.25;;;;;;;;;;6256384;28;20299;-71
2023/09/30 01:25:52;;;;;;;4.15;3.85;;;;;;;;;;6256868;28;20287;-70
2023/09/30 01:28:56;;;;;;;3.90;3.60;;;;;;;;;;6281843;28;20298;-70
2023/09/30 01:32:00;;;;;;;3.33;3.03;;;;;;;;;;6281569;28;20303;-71
2023/09/30 01:35:05;;;;;;;4.13;2.72;;;;;;;;;;6281119;28;20298;-70
2023/09/30 01:38:28;;;;;;;3.47;2.70;;;;;;;;;;6296738;28;20290;-70
2023/09/30 01:41:32;;;;;;;2.50;2.38;;;;;;;;;;6259280;28;20300;-71
2023/09/30 01:44:36;;;;;;;2.97;2.25;;;;;;;;;;6256537;28;20307;-70
2023/09/30 01:47:40;;;;;;;2.00;2.00;;;;;;;;;;6254945;28;20324;-71
2023/09/30 01:50:44;;;;;;;2.00;2.00;;;;;;;;;;6256011;28;20291;-69
2023/09/30 01:53:49;;;;;;;1.52;1.52;;;;;;;;;;6270860;28;20587;-70
2023/09/30 01:56:53;;;;;;;1.88;1.70;;;;;;;;;;6256718;28;20296;-70
2023/09/30 01:59:57;;;;;;;1.77;1.67;;;;;;;;;;6256629;28;20625;-72
2023/09/30 02:03:01;;;;;;;2.05;1.90;;;;;;;;;;6261418;28;20331;-70
2023/09/30 02:06:05;;;;;;;2.10;2.00;;;;;;;;;;6261704;28;20303;-70
2023/09/30 02:09:11;;;;;;;3.97;1.98;;;;;;;;;;6247334;28;20644;-70
2023/09/30 02:12:14;;;;;;;5.35;2.10;;;;;;;;;;6258119;28;20295;-70
2023/09/30 02:15:19;;;;;;;5.37;2.57;;;;;;;;;;6258743;28;20303;-71
2023/09/30 02:18:24;;;;;;;2.75;2.53;;;;;;;;;;6270063;28;20288;-70
2023/09/30 02:21:28;;;;;;;4.05;2.20;;;;;;;;;;6275231;28;20307;-71
2023/09/30 02:24:33;;;;;;;2.28;2.08;;;;;;;;;;6260641;28;20339;-72
2023/09/30 02:27:37;;;;;;;9.40;2.50;;;;;;;;;;6259880;28;20296;-70
2023/09/30 02:30:41;;;;;;;7.13;2.72;;;;;;;;;;6259829;28;20287;-70
2023/09/30 02:33:45;;;;;;;3.08;2.35;;;;;;;;;;6274420;28;20312;-71
2023/09/30 02:36:49;;;;;;;7.15;2.65;;;;;;;;;;6260447;28;20279;-70
2023/09/30 02:39:54;;;;;;;5.28;2.80;;;;;;;;;;6258107;28;20299;-70
2023/09/30 02:42:58;;;;;;;5.43;2.83;;;;;;;;;;6258492;28;20300;-70
2023/09/30 02:46:01;;;;;;;5.40;2.92;;;;;;;;;;6258711;28;20315;-71
2023/09/30 02:49:24;;;;;;;4.25;2.42;;;;;;;;;;6259891;28;20323;-70
2023/09/30 02:52:28;;;;;;;3.88;2.50;;;;;;;;;;6275291;28;20502;-71
2023/09/30 02:55:33;;;;;;;2.15;2.05;;;;;;;;;;6242649;28;20299;-70
2023/09/30 02:58:38;;;;;;;2.58;2.38;;;;;;;;;;6259332;28;20296;-70
2023/09/30 03:01:42;;;;;;;3.58;2.45;;;;;;;;;;6259191;28;20291;-70
2023/09/30 03:04:46;;;;;;;4.53;2.78;;;;;;;;;;6259294;28;20283;-70
2023/09/30 03:07:51;;;;;;;5.68;2.83;;;;;;;;;;6259284;28;20291;-71
2023/09/30 03:10:56;;;;;;;4.03;2.65;;;;;;;;;;6258949;28;20632;-71
2023/09/30 03:14:00;;;;;;;2.60;2.40;;;;;;;;;;6247817;28;20315;-69
2023/09/30 03:17:04;;;;;;;5.43;2.58;;;;;;;;;;6234926;28;20296;-70
2023/09/30 03:20:11;;;;;;;2.95;2.15;;;;;;;;;;6259790;28;20287;-71
2023/09/30 03:23:15;;;;;;;6.07;2.40;;;;;;;;;;6283688;28;20422;-70
2023/09/30 03:26:20;;;;;;;4.55;2.75;;;;;;;;;;6284194;28;20320;-70
2023/09/30 03:29:24;;;;;;;3.63;2.88;;;;;;;;;;6283614;28;20302;-70
2023/09/30 03:32:29;;;;;;;4.20;2.60;;;;;;;;;;6284353;28;20306;-72
2023/09/30 03:35:33;;;;;;;4.38;2.60;;;;;;;;;;6281194;28;20315;-70
2023/09/30 03:38:37;;;;;;;6.10;2.75;;;;;;;;;;6258715;28;20307;-70
2023/09/30 03:41:42;;;;;;;5.60;2.78;;;;;;;;;;6257062;28;20311;-71
2023/09/30 03:44:48;;;;;;;5.30;2.67;;;;;;;;;;6258568;28;20287;-70
2023/09/30 03:47:52;;;;;;;6.43;2.83;;;;;;;;;;6258459;28;20633;-70
2023/09/30 03:50:56;;;;;;;5.63;3.10;;;;;;;;;;6260528;28;20295;-69
2023/09/30 03:54:02;;;;;;;15.20;3.20;;;;;;;;;;6258492;28;20315;-70
2023/09/30 03:57:08;;;;;;;5.97;3.58;;;;;;;;;;6258834;28;20296;-70
2023/09/30 04:00:16;;;;;;;8.35;3.15;;;;;;;;;;6258277;28;20295;-71
2023/09/30 04:03:20;;;;;;;10.23;3.05;;;;;;;;;;6258439;28;20303;-70
2023/09/30 04:06:24;;;;;;;8.95;3.38;;;;;;;;;;6258911;28;20470;-70
2023/09/30 04:09:28;;;;;;;4.95;3.15;;;;;;;;;;6258354;28;20300;-71
2023/09/30 04:12:33;;;;;;;8.23;3.28;;;;;;;;;;6258837;28;20295;-70
2023/09/30 04:15:37;;;;;;;7.57;3.80;;;;;;;;;;6257411;28;20300;-70
2023/09/30 04:18:41;;;;;;;9.15;3.03;;;;;;;;;;6258234;28;20557;-69
2023/09/30 04:21:45;;;;;;;5.57;3.20;;;;;;;;;;6258599;28;20390;-71
2023/09/30 04:24:50;;;;;;;7.10;3.30;;;;;;;;;;6257560;28;20304;-70
2023/09/30 04:27:58;;;;;;;10.07;3.25;;;;;;;;;;6258329;28;20330;-70
2023/09/30 04:31:02;;;;;;;7.47;3.60;;;;;;;;;;6258479;28;20500;-70
2023/09/30 04:34:07;;;;;;;7.57;3.55;;;;;;;;;;6257773;28;20299;-72
2023/09/30 04:37:11;;;;;;;9.85;3.35;;;;;;;;;;6257957;28;20296;-70
2023/09/30 04:40:19;;;;;;;7.72;3.55;;;;;;;;;;6255483;28;20319;-70
2023/09/30 04:43:28;;;;;;;11.10;3.50;;;;;;;;;;6257272;28;20579;-71
2023/09/30 04:46:33;;;;;;;10.50;3.50;;;;;;;;;;6257715;28;20312;-70
2023/09/30 04:49:37;;;;;;;7.07;2.95;;;;;;;;;;6257376;28;20291;-70
2023/09/30 04:52:41;;;;;;;7.40;3.05;;;;;;;;;;6255356;28;20299;-70
2023/09/30 04:55:45;;;;;;;12.02;3.85;;;;;;;;;;6257547;28;20295;-70
2023/09/30 04:58:50;;;;;;;12.13;3.40;;;;;;;;;;6257010;28;20300;-70
2023/09/30 05:01:54;;;;;;;11.90;3.55;;;;;;;;;;6257263;28;20311;-70
2023/09/30 05:04:58;;;;;;;9.57;3.75;;;;;;;;;;6256854;28;20302;-70
2023/09/30 05:08:02;;;;;;;8.70;3.90;;;;;;;;;;6256651;28;20295;-71
2023/09/30 05:11:06;;;;;;;13.63;3.63;;;;;;;;;;6256981;28;20552;-70
2023/09/30 05:14:11;;;;;;;9.75;3.30;;;;;;;;;;6256508;28;20608;-70
2023/09/30 05:17:15;;;;;;;7.47;3.63;;;;;;;;;;6257058;28;20592;-71
2023/09/30 05:20:19;;;;;;;8.98;3.28;;;;;;;;;;6256624;28;20307;-71
2023/09/30 05:23:24;;;;;;;11.90;3.63;;;;;;;;;;6256358;28;20242;-71
2023/09/30 05:26:28;;;;;;;12.63;3.72;;;;;;;;;;6256974;28;20300;-69
2023/09/30 05:29:33;;;;;;;11.98;3.38;;;;;;;;;;6256538;28;20315;-70
2023/09/30 05:32:38;;;;;;;11.18;3.40;;;;;;;;;;6257165;28;20295;-70
2023/09/30 05:35:42;;;;;;;8.57;3.10;;;;;;;;;;6259179;28;20307;-70
2023/09/30 05:38:47;;;;;;;13.07;4.10;;;;;;;;;;6261373;28;20312;-70
2023/09/30 05:41:51;;;;;;;10.73;3.20;;;;;;;;;;6260330;28;20296;-70
2023/09/30 05:44:56;;;;;;;7.18;3.05;;;;;;;;;;6261251;28;20312;-72
2023/09/30 05:48:03;;;;;;;5.72;2.67;;;;;;;;;;6261364;28;20292;-70
2023/09/30 05:51:07;;;;;;;7.88;3.05;;;;;;;;;;6261536;28;20287;-72
2023/09/30 05:54:11;;;;;;;8.20;3.58;;;;;;;;;;6261136;28;20640;-71
2023/09/30 05:57:15;;;;;;;7.85;3.20;;;;;;;;;;6261685;28;20323;-71
2023/09/30 06:00:28;;;;;;;9.52;3.20;;;;;;;;;;6260880;28;20307;-70
2023/09/30 06:03:33;;;;;;;9.13;3.15;;;;;;;;;;6259166;28;20479;-70
2023/09/30 06:06:38;;;;;;;11.40;3.83;;;;;;;;;;6260728;28;20346;-70
2023/09/30 06:09:42;;;;;;;7.43;2.72;;;;;;;;;;6258383;28;20303;-71
2023/09/30 06:12:47;;;;;;;16.48;3.10;;;;;;;;;;6260425;28;20397;-71
2023/09/30 06:15:52;;;;;;;11.63;3.42;;;;;;;;;;6260725;28;20528;-70
2023/09/30 06:18:56;;;;;;;9.40;3.45;;;;;;;;;;6260290;28;20313;-71
2023/09/30 06:22:02;;;;;;;7.28;3.08;;;;;;;;;;6260367;28;20479;-71
2023/09/30 06:25:07;;;;;;;9.80;3.40;;;;;;;;;;6260274;28;20287;-70
2023/09/30 06:28:13;;;;;;;8.15;3.15;;;;;;;;;;6275509;28;20448;-70
2023/09/30 06:31:18;;;;;;;10.25;3.03;;;;;;;;;;6260993;28;20462;-71
2023/09/30 06:34:22;;;;;;;12.55;3.35;;;;;;;;;;6259766;28;20303;-71
2023/09/30 06:37:26;;;;;;;10.57;3.03;;;;;;;;;;6260400;28;20584;-72
2023/09/30 06:40:30;;;;;;;9.68;3.35;;;;;;;;;;6258311;28;20639;-70
2023/09/30 06:43:35;;;;;;;17.27;3.38;;;;;;;;;;6260059;28;20304;-71
2023/09/30 06:46:40;;;;;;;12.30;3.13;;;;;;;;;;6259418;28;20295;-70
2023/09/30 06:49:46;;;;;;;7.82;2.95;;;;;;;;;;6259750;28;20379;-71
2023/09/30 06:52:50;;;;;;;9.20;3.10;;;;;;;;;;6259690;28;20299;-73
2023/09/30 06:55:54;;;;;;;8.25;2.75;;;;;;;;;;6260240;28;20295;-72
2023/09/30 06:58:59;;;;;;;8.63;2.85;;;;;;;;;;6259680;28;20238;-71
2023/09/30 07:02:04;;;;;;;10.02;2.85;;;;;;;;;;6260254;28;20308;-70
2023/09/30 07:05:09;;;;;;;9.32;2.83;;;;;;;;;;6259735;28;20550;-71
2023/09/30 07:08:13;;;;;;;9.05;2.97;;;;;;;;;;6259279;28;20331;-72
2023/09/30 07:11:16;;;;;;;13.95;3.15;;;;;;;;;;6259854;28;20327;-70
2023/09/30 07:14:20;;;;;;;14.18;2.95;;;;;;;;;;6259271;28;20287;-72
2023/09/30 07:17:26;;;;;;;9.13;3.22;;;;;;;;;;6259597;28;20295;-71
2023/09/30 07:20:32;;;;;;;8.40;2.92;;;;;;;;;;6259069;28;20295;-71
2023/09/30 07:23:37;;;;;;;11.63;3.35;;;;;;;;;;6259048;28;20308;-71
2023/09/30 07:26:41;;;;;;;11.88;2.78;;;;;;;;;;6259397;28;20311;-70
2023/09/30 07:29:45;;;;;;;11.30;2.75;;;;;;;;;;6274111;28;20360;-71
2023/09/30 07:32:50;;;;;;;10.95;3.22;;;;;;;;;;6258948;28;20303;-71
2023/09/30 07:35:55;;;;;;;12.73;3.30;;;;;;;;;;6254940;28;20312;-70
2023/09/30 07:39:00;;;;;;;9.68;3.03;;;;;;;;;;6222040;28;20297;-70
2023/09/30 07:42:05;;;;;;;14.93;3.00;;;;;;;;;;6225920;28;20321;-71
2023/09/30 07:45:11;;;;;;;12.35;3.05;;;;;;;;;;6209793;28;20653;-72
2023/09/30 07:48:16;;;;;;;14.30;3.22;;;;;;;;;;6209636;28;20300;-72
2023/09/30 07:51:20;;;;;;;7.53;2.85;;;;;;;;;;6210190;28;20298;-71
2023/09/30 07:54:24;;;;;;;13.75;3.25;;;;;;;;;;6209946;28;20637;-70
2023/09/30 07:57:34;;;;;;;11.45;3.00;;;;;;;;;;6210190;28;20294;-71
2023/09/30 08:00:38;;;;;;;12.02;2.67;;;;;;;;;;6232999;28;20569;-70
2023/09/30 08:03:44;;;;;;;11.98;3.22;;;;;;;;;;6233458;28;20300;-69
2023/09/30 08:06:48;;;;;;;10.20;2.60;;;;;;;;;;6234181;28;20252;-71
2023/09/30 08:09:51;;;;;;;12.23;3.08;;;;;;;;;;6236850;28;20308;-72
2023/09/30 08:12:57;;;;;;;12.52;3.28;;;;;;;;;;6258648;28;20510;-71
2023/09/30 08:16:01;;;;;;;12.82;2.85;;;;;;;;;;6258643;28;20303;-70
2023/09/30 08:19:07;;;;;;;15.38;3.03;;;;;;;;;;6258421;28;20299;-70
2023/09/30 08:22:11;;;;;;;13.52;2.88;;;;;;;;;;6258853;28;20299;-71
2023/09/30 08:25:14;;;;;;;8.65;2.83;;;;;;;;;;6258323;28;20299;-71
2023/09/30 08:28:18;;;;;;;12.02;3.17;;;;;;;;;;6258435;28;20291;-70
2023/09/30 08:31:23;;;;;;;12.25;3.38;;;;;;;;;;6258674;28;20299;-71
2023/09/30 08:34:28;;;;;;;9.43;3.15;;;;;;;;;;6258154;28;20328;-70
2023/09/30 08:37:32;;;;;;;14.77;2.83;;;;;;;;;;6258410;28;20287;-70
2023/09/30 08:40:37;;;;;;;9.85;3.17;;;;;;;;;;6256354;28;20303;-70
2023/09/30 08:43:41;;;;;;;10.38;3.65;;;;;;;;;;6258584;28;20312;-70
2023/09/30 08:46:46;;;;;;;9.02;3.00;;;;;;;;;;6258835;28;20295;-71
2023/09/30 08:49:56;;;;;;;13.18;2.97;;;;;;;;;;6258244;28;20291;-69
2023/09/30 08:53:01;;;;;;;8.70;3.10;;;;;;;;;;6257784;28;20303;-75
2023/09/30 08:56:09;;;;;;;16.30;3.38;;;;;;;;;;6257755;28;20303;-71
2023/09/30 08:59:14;;;;;;;9.05;3.13;;;;;;;;;;6256483;28;20619;-70
2023/09/30 09:02:18;;;;;;;14.85;2.80;;;;;;;;;;6257716;28;20295;-70
2023/09/30 09:05:23;;;;;;;15.00;3.40;;;;;;;;;;6257165;28;20288;-71
2023/09/30 09:08:27;;;;;;;12.98;3.05;;;;;;;;;;6257268;28;20295;-70
2023/09/30 09:11:38;;;;;;;15.35;3.45;;;;;;;;;;6257035;28;20299;-71
2023/09/30 09:14:43;;;;;;;15.10;3.08;;;;;;;;;;6288633;28;20298;-71
2023/09/30 09:17:47;;;;;;;12.70;3.17;;;;;;;;;;6281537;28;20738;-71
2023/09/30 09:21:09;;;;;;;7.30;2.80;;;;;;;;;;6282426;28;20567;-70
2023/09/30 09:24:27;;;;;;;17.50;3.00;;;;;;;;;;6282019;28;20294;-70
2023/09/30 09:27:34;;;;;;;15.45;3.30;;;;;;;;;;6282020;28;20287;-70
2023/09/30 09:30:40;;;;;;;8.50;3.28;;;;;;;;;;6281029;28;20291;-70
2023/09/30 09:33:44;;;;;;;10.05;2.83;;;;;;;;;;6295873;28;20326;-71
2023/09/30 09:36:50;;;;;;;14.95;3.75;;;;;;;;;;6281967;28;20555;-71
2023/09/30 09:39:55;;;;;;;9.30;2.67;;;;;;;;;;6272400;28;20458;-71
2023/09/30 09:43:02;;;;;;;9.68;2.65;;;;;;;;;;6257084;28;20704;-69
2023/09/30 09:46:08;;;;;;;9.32;2.33;;;;;;;;;;6257129;28;20295;-70
2023/09/30 09:49:13;;;;;;;11.07;3.05;;;;;;;;;;6256747;28;20444;-70
2023/09/30 09:52:19;;;;;;;14.77;2.90;;;;;;;;;;6257006;28;20536;-70
2023/09/30 09:55:24;;;;;;;8.40;2.78;;;;;;;;;;6256833;28;20634;-72
2023/09/30 09:58:31;;;;;;;8.68;2.92;;;;;;;;;;6256570;28;20300;-71
2023/09/30 10:01:35;;;;;;;4.97;2.50;;;;;;;;;;6256904;28;20307;-71
2023/09/30 10:04:39;;;;;;;15.80;3.30;;;;;;;;;;6256718;28;20292;-71
2023/09/30 10:07:48;;;;;;;10.73;3.25;;;;;;;;;;6256357;28;20299;-73
2023/09/30 10:10:52;;;;;;;11.18;2.92;;;;;;;;;;6256844;28;20508;-71
2023/09/30 10:13:57;;;;;;;14.45;2.55;;;;;;;;;;6256525;28;20295;-72
2023/09/30 10:17:01;;;;;;;8.68;2.30;;;;;;;;;;6257136;28;20320;-71
2023/09/30 10:20:07;;;;;;;10.95;2.60;;;;;;;;;;6256429;28;20502;-71
2023/09/30 10:23:26;;;;;;;4.53;2.40;;;;;;;;;;6260042;28;20312;-71
2023/09/30 10:26:30;;;;;;;6.07;2.45;;;;;;;;;;6261206;28;20292;-74
2023/09/30 10:29:41;;;;;;;8.45;2.92;;;;;;;;;;6260781;28;20364;-70
2023/09/30 10:33:09;;;;;;;7.78;2.53;;;;;;;;;;6260659;28;20319;-71
2023/09/30 10:36:13;;;;;;;7.18;2.65;;;;;;;;;;6226772;28;20335;-71
2023/09/30 10:39:55;;;;;;;9.63;2.72;;;;;;;;;;6234269;28;20316;-73
2023/09/30 10:43:02;;;;;;;9.80;2.58;;;;;;;;;;6234537;28;20454;-71
2023/09/30 10:46:30;;;;;;;10.98;2.72;;;;;;;;;;6235634;28;20299;-72
2023/09/30 10:49:35;;;;;;;12.23;3.03;;;;;;;;;;6235245;28;20299;-72
2023/09/30 10:52:39;;;;;;;9.90;2.47;;;;;;;;;;6235333;28;20300;-71
2023/09/30 10:55:45;;;;;;;6.47;2.33;;;;;;;;;;6235779;28;20304;-70
2023/09/30 10:58:50;;;;;;;9.20;2.33;;;;;;;;;;6235287;28;20289;-70
2023/09/30 11:01:54;;;;;;;9.48;2.42;;;;;;;;;;6235330;28;20343;-71
2023/09/30 11:04:59;;;;;;;5.85;2.25;;;;;;;;;;6234878;28;20300;-71
2023/09/30 11:08:04;;;;;;;6.63;2.17;;;;;;;;;;6234696;28;20340;-72
2023/09/30 11:11:09;;;;;;;3.55;2.10;;;;;;;;;;6235259;28;20296;-70
2023/09/30 11:14:23;;;;;;;7.03;2.28;;;;;;;;;;6234965;28;20300;-70
2023/09/30 11:17:32;;;;;;;4.75;2.25;;;;;;;;;;6235827;28;20308;-71
2023/09/30 11:20:36;;;;;;;10.18;2.55;;;;;;;;;;6235381;28;20372;-73
2023/09/30 11:23:42;;;;;;;4.78;2.38;;;;;;;;;;6234205;28;20263;-71
2023/09/30 11:26:47;;;;;;;8.18;2.10;;;;;;;;;;6234714;28;20493;-71
2023/09/30 11:29:51;;;;;;;4.20;2.05;;;;;;;;;;6234271;28;20293;-72
2023/09/30 11:33:00;;;;;;;4.40;1.90;;;;;;;;;;6235223;28;20439;-71
2023/09/30 11:36:05;;;;;;;5.85;1.75;;;;;;;;;;6258892;28;20487;-72
2023/09/30 11:39:10;;;;;;;4.35;2.00;;;;;;;;;;6256694;28;20305;-69
2023/09/30 11:42:19;;;;;;;9.77;2.40;;;;;;;;;;6259599;28;20561;-71
2023/09/30 11:45:23;;;;;;;8.60;2.00;;;;;;;;;;6258686;28;20311;-72
2023/09/30 11:48:28;;;;;;;8.40;2.40;;;;;;;;;;6259091;28;20347;-71
2023/09/30 11:51:46;;;;;;;6.43;2.00;;;;;;;;;;6258584;28;20304;-70
2023/09/30 11:54:50;;;;;;;6.70;2.38;;;;;;;;;;6258077;28;20300;-69
2023/09/30 11:57:55;;;;;;;3.58;1.80;;;;;;;;;;6258061;28;20247;-69
2023/09/30 12:01:00;;;;;;;4.82;1.60;;;;;;;;;;6259345;28;20288;-70
2023/09/30 12:04:05;;;;;;;7.18;1.80;;;;;;;;;;6257738;28;20312;-70
2023/09/30 12:07:09;;;;;;;2.28;1.88;;;;;;;;;;6257496;28;20303;-69
2023/09/30 12:10:14;;;;;;;3.83;1.70;;;;;;;;;;6257543;28;20299;-71
2023/09/30 12:13:20;;;;;;;2.15;1.55;;;;;;;;;;6257623;28;20340;-72
2023/09/30 12:16:25;;;;;;;11.25;1.90;;;;;;;;;;6258176;28;20511;-69
2023/09/30 12:19:29;;;;;;;4.60;1.85;;;;;;;;;;6257399;28;20303;-69
2023/09/30 12:22:33;;;;;;;1.65;1.40;;;;;;;;;;6257679;28;20303;-71
2023/09/30 12:25:37;;;;;;;5.18;1.60;;;;;;;;;;6257320;28;20307;-70
2023/09/30 12:28:43;;;;;;;4.22;1.70;;;;;;;;;;6257560;28;20319;-69
2023/09/30 12:31:48;;;;;;;8.82;2.35;;;;;;;;;;6256333;28;20311;-70
2023/09/30 12:34:56;;;;;;;4.35;1.67;;;;;;;;;;6256818;28;20295;-71
2023/09/30 12:38:00;;;;;;;1.40;1.33;;;;;;;;;;6257188;28;20396;-68
2023/09/30 12:41:04;;;;;;;1.42;1.08;;;;;;;;;;6256932;28;20296;-72
2023/09/30 12:44:10;;;;;;;6.55;1.42;;;;;;;;;;6256911;28;20240;-70
2023/09/30 12:47:13;;;;;;;1.67;1.10;;;;;;;;;;6257215;28;20295;-73
2023/09/30 12:50:17;;;;;;;5.03;1.60;;;;;;;;;;6256914;28;20291;-71
2023/09/30 12:53:21;;;;;;;1.70;1.60;;;;;;;;;;6256960;28;20625;-71
2023/09/30 12:56:25;;;;;;;3.80;1.30;;;;;;;;;;6257376;28;20304;-73
2023/09/30 12:59:30;;;;;;;1.63;1.25;;;;;;;;;;6256726;28;20612;-71
2023/09/30 13:02:34;;;;;;;5.30;1.40;;;;;;;;;;6257217;28;20295;-71
2023/09/30 13:05:38;;;;;;;2.50;1.08;;;;;;;;;;6256646;28;20288;-70
2023/09/30 13:08:45;;;;;;;2.50;1.17;;;;;;;;;;6256636;28;20304;-70
2023/09/30 13:11:50;;;;;;;1.50;0.93;;;;;;;;;;6257033;28;20498;-74
2023/09/30 13:14:56;;;;;;;3.20;1.30;;;;;;;;;;6256528;28;20314;-72
2023/09/30 13:18:00;;;;;;;4.10;1.10;;;;;;;;;;6256402;28;20475;-69
2023/09/30 13:21:05;;;;;;;3.20;1.35;;;;;;;;;;6256844;28;20295;-71
2023/09/30 13:24:10;;;;;;;3.88;1.45;;;;;;;;;;6256026;28;20304;-69
2023/09/30 13:27:15;;;;;;;2.58;1.23;;;;;;;;;;6256886;28;20335;-72
2023/09/30 13:30:22;;;;;;;1.38;1.27;;;;;;;;;;6256513;28;20292;-69
2023/09/30 13:33:26;;;;;;;2.30;1.00;;;;;;;;;;6256644;28;20307;-71
2023/09/30 13:36:30;;;;;;;2.90;1.27;;;;;;;;;;6257216;28;20615;-69
2023/09/30 13:39:34;;;;;;;5.45;1.15;;;;;;;;;;6255148;28;20318;-71
2023/09/30 13:42:38;;;;;;;3.72;1.20;;;;;;;;;;6256391;28;20346;-73
2023/09/30 13:45:43;;;;;;;1.27;1.17;;;;;;;;;;6257160;28;20259;-70
2023/09/30 13:48:52;;;;;;;2.35;1.15;;;;;;;;;;6256557;28;20330;-70
2023/09/30 13:51:56;;;;;;;1.30;1.20;;;;;;;;;;6256741;28;20311;-71
2023/09/30 13:55:00;;;;;;;3.13;1.25;;;;;;;;;;6257344;28;20299;-71
2023/09/30 13:58:04;;;;;;;3.53;1.25;;;;;;;;;;6261400;28;20308;-71
2023/09/30 14:01:10;;;;;;;2.53;1.50;;;;;;;;;;6261971;28;20292;-70
2023/09/30 14:04:16;;;;;;;2.35;1.20;;;;;;;;;;6261317;28;20486;-70
2023/09/30 14:07:20;;;;;;;1.38;1.17;;;;;;;;;;6261453;28;20319;-69
2023/09/30 14:10:24;;;;;;;1.27;1.25;;;;;;;;;;6260680;28;20303;-70
2023/09/30 14:13:28;;;;;;;4.30;1.30;;;;;;;;;;6260849;28;20295;-72
2023/09/30 14:16:33;;;;;;;4.68;1.30;;;;;;;;;;6261124;28;20354;-71
2023/09/30 14:19:38;;;;;;;2.47;1.60;;;;;;;;;;6260860;28;20291;-70
2023/09/30 14:22:43;;;;;;;2.97;1.23;;;;;;;;;;6275432;28;20283;-70
2023/09/30 14:25:46;;;;;;;1.33;1.23;;;;;;;;;;6261445;28;20299;-74
2023/09/30 14:28:51;;;;;;;2.78;1.50;;;;;;;;;;6275873;28;20295;-69
2023/09/30 14:31:56;;;;;;;3.13;1.45;;;;;;;;;;6260809;28;20295;-69
2023/09/30 14:35:00;;;;;;;3.50;1.27;;;;;;;;;;6260101;28;20303;-70
2023/09/30 14:38:05;;;;;;;1.98;1.75;;;;;;;;;;6260608;28;20308;-69
2023/09/30 14:41:10;;;;;;;4.65;1.17;;;;;;;;;;6258851;28;20307;-70
2023/09/30 14:44:14;;;;;;;1.48;1.30;;;;;;;;;;6259882;28;20307;-69
2023/09/30 14:47:19;;;;;;;2.38;1.40;;;;;;;;;;6260488;28;20442;-71
2023/09/30 14:50:23;;;;;;;3.22;1.52;;;;;;;;;;6259888;28;20299;-70
2023/09/30 14:53:26;;;;;;;1.85;1.13;;;;;;;;;;6259670;28;20475;-71
2023/09/30 14:56:30;;;;;;;2.10;1.25;;;;;;;;;;6260266;28;20283;-70
2023/09/30 14:59:34;;;;;;;1.70;1.52;;;;;;;;;;6260043;28;20564;-69
2023/09/30 15:02:40;;;;;;;2.88;1.13;;;;;;;;;;6259258;28;20417;-72
2023/09/30 15:05:44;;;;;;;2.50;1.15;;;;;;;;;;6259765;28;20311;-70
2023/09/30 15:08:48;;;;;;;2.70;1.20;;;;;;;;;;6258446;28;20307;-70
2023/09/30 15:11:51;;;;;;;1.08;1.02;;;;;;;;;;6259406;28;20311;-70
2023/09/30 15:14:55;;;;;;;2.80;1.40;;;;;;;;;;6259209;28;20295;-71
2023/09/30 15:18:01;;;;;;;4.55;1.20;;;;;;;;;;6259121;28;20295;-69
2023/09/30 15:21:05;;;;;;;2.67;1.35;;;;;;;;;;6259546;28;20288;-70
2023/09/30 15:24:10;;;;;;;4.10;1.20;;;;;;;;;;6258898;28;20315;-69
2023/09/30 15:27:14;;;;;;;4.80;2.08;;;;;;;;;;6259518;28;20300;-70
2023/09/30 15:30:18;;;;;;;3.05;1.48;;;;;;;;;;6258735;28;20635;-70
2023/09/30 15:33:23;;;;;;;4.28;1.48;;;;;;;;;;6273776;28;20311;-70
2023/09/30 15:36:27;;;;;;;2.33;1.20;;;;;;;;;;6259089;28;20299;-71
2023/09/30 15:39:38;;;;;;;6.20;1.40;;;;;;;;;;6256586;28;20299;-71
2023/09/30 15:42:42;;;;;;;3.05;1.48;;;;;;;;;;6257875;28;20397;-70
2023/09/30 15:45:46;;;;;;;2.53;1.20;;;;;;;;;;6258589;28;20272;-70
2023/09/30 15:48:51;;;;;;;2.72;1.13;;;;;;;;;;6258633;28;20323;-71
2023/09/30 15:51:55;;;;;;;3.53;1.20;;;;;;;;;;6258731;28;20256;-70
2023/09/30 15:55:00;;;;;;;3.33;1.10;;;;;;;;;;6258433;28;20303;-71
2023/09/30 15:58:05;;;;;;;3.55;1.33;;;;;;;;;;6257877;28;20288;-70
2023/09/30 16:01:12;;;;;;;2.55;1.30;;;;;;;;;;6258734;28;20291;-70
2023/09/30 16:04:18;;;;;;;1.35;1.33;;;;;;;;;;6258153;28;20303;-68
2023/09/30 16:07:21;;;;;;;3.55;1.70;;;;;;;;;;6258808;28;20311;-70
2023/09/30 16:10:28;;;;;;;3.22;1.25;;;;;;;;;;6257616;28;20292;-68
2023/09/30 16:13:32;;;;;;;1.63;1.30;;;;;;;;;;6257687;28;20327;-69
2023/09/30 16:16:36;;;;;;;8.05;1.80;;;;;;;;;;6258114;28;20299;-71
2023/09/30 16:19:41;;;;;;;5.55;1.30;;;;;;;;;;6257787;28;20296;-69
2023/09/30 16:22:45;;;;;;;2.25;1.30;;;;;;;;;;6257445;28;20299;-71
2023/09/30 16:25:49;;;;;;;1.42;1.20;;;;;;;;;;6257848;28;20303;-71
2023/09/30 16:28:53;;;;;;;2.35;1.20;;;;;;;;;;6257650;28;20304;-71
2023/09/30 16:31:57;;;;;;;2.75;1.23;;;;;;;;;;6257981;28;20338;-70
2023/09/30 16:35:02;;;;;;;1.98;1.30;;;;;;;;;;6257178;28;20309;-70
2023/09/30 16:38:06;;;;;;;5.65;1.10;;;;;;;;;;6257519;28;20296;-71
2023/09/30 16:41:10;;;;;;;1.63;1.35;;;;;;;;;;6255804;28;20299;-69
2023/09/30 16:44:14;;;;;;;4.13;1.63;;;;;;;;;;6257001;28;20299;-70
2023/09/30 16:47:18;;;;;;;1.33;1.23;;;;;;;;;;6257391;28;20299;-71
2023/09/30 16:50:23;;;;;;;5.97;1.30;;;;;;;;;;6257121;28;20303;-72
2023/09/30 16:53:27;;;;;;;2.20;1.38;;;;;;;;;;6256858;28;20295;-69
2023/09/30 16:56:31;;;;;;;2.83;1.20;;;;;;;;;;6257641;28;20291;-70
2023/09/30 16:59:35;;;;;;;3.35;1.13;;;;;;;;;;6256969;28;20312;-71
2023/09/30 17:02:38;;;;;;;3.55;1.40;;;;;;;;;;6257191;28;20287;-73
2023/09/30 17:05:44;;;;;;;2.33;1.70;;;;;;;;;;6257168;28;20295;-70
2023/09/30 17:08:47;;;;;;;3.13;1.42;;;;;;;;;;6257182;28;20303;-70
2023/09/30 17:11:51;;;;;;;4.15;1.80;;;;;;;;;;6266591;28;20326;-70
2023/09/30 17:14:55;;;;;;;2.13;1.50;;;;;;;;;;6237694;28;20228;-69
2023/09/30 17:18:00;;;;;;;4.43;1.30;;;;;;;;;;6231868;28;20300;-70
2023/09/30 17:21:05;;;;;;;4.47;1.50;;;;;;;;;;6247488;28;20622;-71
2023/09/30 17:24:09;;;;;;;4.47;1.38;;;;;;;;;;6231835;28;20307;-69
2023/09/30 17:27:12;;;;;;;5.30;1.60;;;;;;;;;;6232575;28;20332;-69
2023/09/30 17:30:17;;;;;;;4.13;1.50;;;;;;;;;;6233236;28;20295;-70
2023/09/30 17:33:41;;;;;;;3.70;1.30;;;;;;;;;;6260180;28;20311;-72
2023/09/30 17:36:48;;;;;;;4.32;1.80;;;;;;;;;;6261652;28;20251;-70
2023/09/30 17:39:52;;;;;;;3.40;1.92;;;;;;;;;;6259033;28;20303;-69
2023/09/30 17:42:56;;;;;;;4.72;1.55;;;;;;;;;;6261269;28;20239;-70
2023/09/30 17:46:00;;;;;;;1.40;1.30;;;;;;;;;;6261422;28;20439;-71
2023/09/30 17:49:04;;;;;;;1.42;1.33;;;;;;;;;;6261123;28;20459;-70
2023/09/30 17:52:09;;;;;;;3.45;1.60;;;;;;;;;;6261368;28;20310;-69
2023/09/30 17:55:14;;;;;;;1.20;1.20;;;;;;;;;;6260977;28;20304;-68
2023/09/30 17:58:17;;;;;;;1.80;1.40;;;;;;;;;;6260773;28;20300;-70
2023/09/30 18:01:22;;;;;;;1.55;1.15;;;;;;;;;;6261642;28;20299;-70
2023/09/30 18:04:26;;;;;;;5.28;1.33;;;;;;;;;;6260743;28;20311;-70
2023/09/30 18:07:33;;;;;;;3.17;1.30;;;;;;;;;;6261149;28;20308;-70
2023/09/30 18:10:37;;;;;;;2.03;1.13;;;;;;;;;;6260502;28;20295;-69
2023/09/30 18:13:41;;;;;;;2.47;1.30;;;;;;;;;;6260824;28;20295;-71
2023/09/30 18:16:45;;;;;;;2.53;1.27;;;;;;;;;;6261311;28;20299;-70
2023/09/30 18:19:50;;;;;;;3.25;1.63;;;;;;;;;;6258918;28;20291;-69
2023/09/30 18:22:55;;;;;;;3.85;1.60;;;;;;;;;;6260613;28;20479;-69
2023/09/30 18:25:59;;;;;;;3.15;1.45;;;;;;;;;;6259301;28;20299;-70
2023/09/30 18:29:04;;;;;;;5.03;1.60;;;;;;;;;;6260777;28;20303;-70